Panda — PBCS — position and weather

sailwx.info

Track history (hours):
 
Tides and Currents Weather Stations Pressure Air Temp Water Temp Dewpoint Dewpoint Depression Visibility Wind Speed Wind Dir Waves Ship Positions

Panda

Last reported at 2016-Dec-10 06:31 UTC. Time now 2016-Dec-10 06:56 UTC.
Position N 46°10' W 001°14'.

Length 89 m; draft 4.3 m.

Type: Cargo ship. MMSI: 245014000.

Date/timePositionNaut miles runAvg speedWind from/ knotsBaromVisibWave heightAir tempDewpointWater temp
2016-Dec-10 06:31N 46°10' W 001°14'0 0.0
2016-Dec-10 05:28N 46°10' W 001°14'0 0.0
2016-Dec-10 04:31N 46°10' W 001°14'0 0.0
2016-Dec-10 03:31N 46°10' W 001°14'0 0.0
2016-Dec-10 02:31N 46°10' W 001°14'0 0.0
2016-Dec-10 01:31N 46°10' W 001°14'0 0.0
2016-Dec-10 00:31N 46°10' W 001°14'0 0.0
2016-Dec-09 23:31N 46°10' W 001°14'0 0.0
2016-Dec-09 22:31N 46°10' W 001°14'0 0.0
2016-Dec-09 21:34N 46°10' W 001°14'0 0.0
2016-Dec-09 20:34N 46°10' W 001°14'0 0.0
2016-Dec-09 19:33N 46°10' W 001°14'0 0.0
2016-Dec-09 18:33N 46°10' W 001°14'0 0.0
2016-Dec-09 17:33N 46°10' W 001°14'0 0.0
2016-Dec-09 16:30N 46°10' W 001°14'0 0.0
2016-Dec-09 15:33N 46°10' W 001°14'0 0.0
2016-Dec-09 14:33N 46°10' W 001°14'0 0.0
2016-Dec-09 13:33N 46°10' W 001°14'0 0.0
2016-Dec-09 12:33N 46°10' W 001°14'0 0.0
2016-Dec-09 11:33N 46°10' W 001°14'0 0.0
2016-Dec-09 10:33N 46°10' W 001°14'0 0.0
2016-Dec-09 09:33N 46°10' W 001°14'0 0.0
2016-Dec-09 08:33N 46°10' W 001°14'0 0.0
2016-Dec-09 07:33N 46°10' W 001°14'5 5.3
2016-Dec-09 06:33N 46°04' W 001°15'0 0.4
2016-Dec-09 05:31N 46°04' W 001°14'0 0.0
2016-Dec-09 04:31N 46°04' W 001°15'0 0.0
2016-Dec-09 03:31N 46°04' W 001°15'0 0.0
2016-Dec-09 02:31N 46°04' W 001°15'0 0.0
2016-Dec-09 01:31N 46°04' W 001°15'0 0.0
2016-Dec-09 00:31N 46°04' W 001°15'0 0.0
2016-Dec-08 23:31N 46°04' W 001°14'0 0.1
2016-Dec-08 22:31N 46°04' W 001°14'0 0.0
2016-Dec-08 21:31N 46°04' W 001°14'0 0.0
2016-Dec-08 20:31N 46°04' W 001°14'0 0.0
2016-Dec-08 19:31N 46°04' W 001°14'0 0.0
2016-Dec-08 18:31N 46°04' W 001°14'0 0.0
2016-Dec-08 17:31N 46°04' W 001°14'0 0.0
2016-Dec-08 16:28N 46°04' W 001°14'0 0.0
2016-Dec-08 15:31N 46°04' W 001°15'0 0.0
2016-Dec-08 14:31N 46°04' W 001°15'0 0.0
2016-Dec-08 13:28N 46°04' W 001°15'0 0.0
2016-Dec-08 12:31N 46°04' W 001°15'0 0.0
2016-Dec-08 11:31N 46°04' W 001°14'0 0.0
2016-Dec-08 10:31N 46°04' W 001°14'0 0.0
2016-Dec-08 09:33N 46°04' W 001°14'0 0.0
2016-Dec-08 08:30N 46°04' W 001°14'0 0.0
2016-Dec-08 07:33N 46°04' W 001°14'0 0.0
2016-Dec-08 06:33N 46°04' W 001°14'0 0.0
2016-Dec-08 05:33N 46°04' W 001°14'0 0.1
2016-Dec-08 04:33N 46°04' W 001°14'0 0.0
2016-Dec-08 03:33N 46°04' W 001°15'0 0.0
2016-Dec-08 02:33N 46°04' W 001°15'0 0.0
2016-Dec-08 01:33N 46°04' W 001°15'0 0.0
2016-Dec-08 00:30N 46°04' W 001°15'0 0.0
2016-Dec-07 23:33N 46°04' W 001°15'0 0.0
2016-Dec-07 22:33N 46°04' W 001°15'0 0.1
2016-Dec-07 21:33N 46°04' W 001°14'0 0.0
2016-Dec-07 20:33N 46°04' W 001°14'0 0.0
2016-Dec-07 19:33N 46°04' W 001°14'0 0.0
2016-Dec-07 18:33N 46°04' W 001°14'0 0.0
2016-Dec-07 17:33N 46°04' W 001°14'0 0.0
2016-Dec-07 16:33N 46°04' W 001°14'0 0.0
2016-Dec-07 15:33N 46°04' W 001°14'0 0.1
2016-Dec-07 14:33N 46°04' W 001°14'0 0.0
2016-Dec-07 13:32N 46°04' W 001°14'0 0.0
2016-Dec-07 12:32N 46°04' W 001°15'0 0.0
2016-Dec-07 11:32N 46°04' W 001°15'0 0.0
2016-Dec-07 10:32N 46°04' W 001°15'0 0.0
2016-Dec-07 09:32N 46°04' W 001°15'0 0.1
2016-Dec-07 08:32N 46°04' W 001°14'0 0.0
2016-Dec-07 07:32N 46°04' W 001°14'0 0.0
2016-Dec-07 06:32N 46°04' W 001°14'0 0.0
2016-Dec-07 05:29N 46°04' W 001°14'2 1.6
2016-Dec-07 04:33N 46°05' W 001°16'7 6.5
2016-Dec-07 03:33N 46°08' W 001°25'7 6.9
2016-Dec-07 02:33N 46°10' W 001°34'7 7.3
2016-Dec-07 01:33N 46°15' W 001°43'7 7.1
2016-Dec-07 00:33N 46°19' W 001°51'7 7.2
2016-Dec-06 23:33N 46°23' W 001°59'8 7.6
2016-Dec-06 22:33N 46°28' W 002°08'8 8.1
2016-Dec-06 21:33N 46°33' W 002°17'8 8.1
2016-Dec-06 20:33N 46°38' W 002°26'15 7.6
2016-Dec-06 18:34N 46°47' W 002°44'8 7.6
2016-Dec-06 17:33N 46°52' W 002°52'9 8.7
2016-Dec-06 16:33N 46°58' W 003°02'10 9.6
2016-Dec-06 15:33N 47°03' W 003°14'9 9.4
2016-Dec-06 14:33N 47°09' W 003°25'10 9.6
2016-Dec-06 13:33N 47°15' W 003°36'10 9.6
2016-Dec-06 12:34N 47°21' W 003°47'10 9.6
2016-Dec-06 11:33N 47°26' W 003°58'10 9.6
2016-Dec-06 10:33N 47°32' W 004°10'10 9.6
2016-Dec-06 09:34N 47°38' W 004°21'10 9.9
2016-Dec-06 08:33N 47°44' W 004°32'10 9.9
2016-Dec-06 07:33N 47°50' W 004°44'10 9.7
2016-Dec-06 06:33N 47°56' W 004°56'9 9.2
2016-Dec-06 05:33N 48°02' W 005°06'9 8.7
2016-Dec-06 04:33N 48°09' W 005°13'9 9.2
2016-Dec-06 03:33N 48°18' W 005°18'10 9.8
2016-Dec-06 02:33N 48°27' W 005°24'9 9.1
2016-Dec-06 01:33N 48°35' W 005°19'1110.9
2016-Dec-06 00:33N 48°43' W 005°07'1110.7
2016-Dec-05 23:33N 48°50' W 004°55'1010.3
2016-Dec-05 22:33N 48°57' W 004°43'11 9.5
2016-Dec-05 21:21N 49°04' W 004°29'17 8.8
2016-Dec-05 19:27N 49°15' W 004°10'9 9.1
2016-Dec-05 18:29N 49°21' W 003°60'9 9.7
2016-Dec-05 17:33N 49°27' W 003°50'1210.3
2016-Dec-05 16:26N 49°35' W 003°36'1010.8
2016-Dec-05 15:29N 49°41' W 003°25'1010.8
2016-Dec-05 14:33N 49°48' W 003°13'1010.1
2016-Dec-05 13:33N 49°54' W 003°01'11 8.9
2016-Dec-05 12:20N 49°59' W 002°46'23 7.9
2016-Dec-05 09:23N 50°05' W 002°10'7 8.5
2016-Dec-05 08:33N 50°07' W 001°60'10 9.8
2016-Dec-05 07:33N 50°10' W 001°45'1111.1
2016-Dec-05 06:33N 50°13' W 001°29'1212.1
2016-Dec-05 05:34N 50°16' W 001°10'1412.3
2016-Dec-05 04:25N 50°19' W 000°49'1211.6
2016-Dec-05 03:23N 50°22' W 000°31'910.9
2016-Dec-05 02:33N 50°25' W 000°17'1010.0
2016-Dec-05 01:33N 50°27' W 000°02'9 9.1
2016-Dec-05 00:33N 50°30' E 000°12'41 9.5
2016-Dec-04 20:17N 50°48' E 001°09'811.2
2016-Dec-04 19:33N 50°54' E 001°18'1110.8
2016-Dec-04 18:33N 51°02' E 001°29'9 9.2
2016-Dec-04 17:33N 51°09' E 001°39'8 8.4
2016-Dec-04 16:33N 51°15' E 001°48'8 8.0
2016-Dec-04 15:33N 51°21' E 001°56'7 7.2
2016-Dec-04 14:33N 51°23' E 002°07'9 8.6
2016-Dec-04 13:33N 51°21' E 002°21'10 9.6
2016-Dec-04 12:33N 51°22' E 002°36'1010.4
2016-Dec-04 11:33N 51°22' E 002°52'1111.0
2016-Dec-04 10:33N 51°23' E 003°10'1111.3
2016-Dec-04 09:34N 51°25' E 003°28'1010.1
2016-Dec-04 08:34N 51°23' E 003°43'10 9.5
2016-Dec-04 07:33N 51°26' E 003°58'8 8.4
2016-Dec-04 06:33N 51°24' E 004°11'5 5.0
2016-Dec-04 05:33N 51°21' E 004°17'1 0.9
2016-Dec-04 04:33N 51°22' E 004°17'0 0.0
2016-Dec-04 03:25N 51°22' E 004°17'0 0.0
2016-Dec-04 01:25N 51°22' E 004°17'0 0.0
2016-Dec-04 00:25N 51°22' E 004°17'0 0.0
2016-Dec-03 23:25N 51°22' E 004°17'0 0.0
2016-Dec-03 22:28N 51°22' E 004°17'0 0.0
2016-Dec-03 21:25N 51°22' E 004°17'0 0.0
2016-Dec-03 20:19N 51°22' E 004°17'0 0.0
2016-Dec-03 19:28N 51°22' E 004°17'0 0.0
2016-Dec-03 18:22N 51°22' E 004°17'0 0.0
2016-Dec-03 17:25N 51°22' E 004°17'0 0.0
2016-Dec-03 16:31N 51°22' E 004°17'0 0.0
2016-Dec-03 15:25N 51°22' E 004°17'0 0.0
2016-Dec-03 14:28N 51°22' E 004°17'0 0.0
2016-Dec-03 13:31N 51°22' E 004°17'0 0.0
2016-Dec-03 12:25N 51°22' E 004°17'0 0.0
2016-Dec-03 11:31N 51°22' E 004°17'0 0.0
2016-Dec-03 10:04N 51°22' E 004°17'0 0.0
2016-Dec-03 09:31N 51°22' E 004°17'0 0.0
2016-Dec-03 08:31N 51°22' E 004°17'0 0.0
2016-Dec-03 07:28N 51°22' E 004°17'0 0.0
2016-Dec-03 06:25N 51°22' E 004°17'0 0.0
2016-Dec-03 05:31N 51°22' E 004°17'1 0.7
2016-Dec-03 04:29N 51°21' E 004°17'1 0.7
2016-Dec-03 03:33N 51°21' E 004°16'8 8.2
2016-Dec-03 02:33N 51°22' E 004°03'6 5.9
2016-Dec-03 01:31N 51°28' E 004°00'29 5.9
2016-Dec-02 20:33N 51°46' E 004°38'8 8.0
2016-Dec-02 19:33N 51°54' E 004°36'5 4.9
2016-Dec-02 18:31N 51°54' E 004°28'0 0.0
2016-Dec-02 17:28N 51°54' E 004°28'0 0.0
2016-Dec-02 16:31N 51°54' E 004°28'1 1.2
2016-Dec-02 15:31N 51°53' E 004°26'0 0.0
2016-Dec-02 14:31N 51°53' E 004°26'0 0.0
2016-Dec-02 13:31N 51°53' E 004°26'0 0.0
2016-Dec-02 12:31N 51°53' E 004°26'0 0.0
2016-Dec-02 11:31N 51°53' E 004°26'0 0.0
2016-Dec-02 10:31N 51°53' E 004°26'0 0.4
2016-Dec-02 09:33N 51°53' E 004°26'1 1.4
2016-Dec-02 08:31N 51°54' E 004°28'0 0.0
2016-Dec-02 07:31N 51°54' E 004°28'0 0.0
2016-Dec-02 06:32N 51°54' E 004°28'0 0.0
2016-Dec-02 05:30N 51°54' E 004°28'0 0.0
2016-Dec-02 04:33N 51°54' E 004°28'0 0.0
2016-Dec-02 03:33N 51°54' E 004°28'0 0.0
2016-Dec-02 02:33N 51°54' E 004°28'0 0.0
2016-Dec-02 01:33N 51°54' E 004°28'0 0.0
2016-Dec-02 00:33N 51°54' E 004°28'0 0.0
2016-Dec-01 23:33N 51°54' E 004°28'0 0.0
2016-Dec-01 22:33N 51°54' E 004°28'6 6.5
2016-Dec-01 21:34N 51°54' E 004°18'9 8.5
2016-Dec-01 20:34N 51°59' E 004°07'9 9.3
2016-Dec-01 19:34N 52°00' E 003°52'8410.3
2016-Dec-01 11:22N 52°46' E 001°56'1011.8
2016-Dec-01 10:33N 52°51' E 001°43'1212.4
2016-Dec-01 09:34N 53°00' E 001°29'1212.4
2016-Dec-01 08:33N 53°10' E 001°15'6911.4
2016-Dec-01 02:33N 54°04' E 000°04'1010.4
2016-Dec-01 01:34N 54°12' W 000°06'10 9.8
2016-Dec-01 00:34N 54°20' W 000°17'9 9.1
2016-Nov-30 23:34N 54°27' W 000°26'37 9.0
2016-Nov-30 19:27N 54°54' W 001°10'910.1
2016-Nov-30 18:34N 55°00' W 001°22'4 1.7
2016-Nov-30 16:24N 54°59' W 001°28'0 0.0
2016-Nov-30 15:30N 54°59' W 001°28'0 0.0
2016-Nov-30 14:30N 54°59' W 001°28'0 0.0
2016-Nov-30 13:30N 54°59' W 001°28'2 0.4
2016-Nov-30 08:32N 55°01' W 001°26'7 7.1
2016-Nov-30 07:33N 54°57' W 001°15'  
Track history (hours):
 
Tides and Currents Weather Stations Pressure Air Temp Water Temp Dewpoint Dewpoint Depression Visibility Wind Speed Wind Dir Waves Ship Positions

Panda

Last reported at 2016-Dec-10 06:31 UTC. Time now 2016-Dec-10 06:56 UTC.
Position N 46°10' W 001°14'.

Length 89 m; draft 4.3 m.

Type: Cargo ship. MMSI: 245014000.

Date/timePositionNaut miles runAvg speedWind from/ knotsBaromVisibWave heightAir tempDewpointWater temp
2016-Dec-10 06:31N 46°10' W 001°14'0 0.0
2016-Dec-10 05:28N 46°10' W 001°14'0 0.0
2016-Dec-10 04:31N 46°10' W 001°14'0 0.0
2016-Dec-10 03:31N 46°10' W 001°14'0 0.0
2016-Dec-10 02:31N 46°10' W 001°14'0 0.0
2016-Dec-10 01:31N 46°10' W 001°14'0 0.0
2016-Dec-10 00:31N 46°10' W 001°14'0 0.0
2016-Dec-09 23:31N 46°10' W 001°14'0 0.0
2016-Dec-09 22:31N 46°10' W 001°14'0 0.0
2016-Dec-09 21:34N 46°10' W 001°14'0 0.0
2016-Dec-09 20:34N 46°10' W 001°14'0 0.0
2016-Dec-09 19:33N 46°10' W 001°14'0 0.0
2016-Dec-09 18:33N 46°10' W 001°14'0 0.0
2016-Dec-09 17:33N 46°10' W 001°14'0 0.0
2016-Dec-09 16:30N 46°10' W 001°14'0 0.0
2016-Dec-09 15:33N 46°10' W 001°14'0 0.0
2016-Dec-09 14:33N 46°10' W 001°14'0 0.0
2016-Dec-09 13:33N 46°10' W 001°14'0 0.0
2016-Dec-09 12:33N 46°10' W 001°14'0 0.0
2016-Dec-09 11:33N 46°10' W 001°14'0 0.0
2016-Dec-09 10:33N 46°10' W 001°14'0 0.0
2016-Dec-09 09:33N 46°10' W 001°14'0 0.0
2016-Dec-09 08:33N 46°10' W 001°14'0 0.0
2016-Dec-09 07:33N 46°10' W 001°14'5 5.3
2016-Dec-09 06:33N 46°04' W 001°15'0 0.4
2016-Dec-09 05:31N 46°04' W 001°14'0 0.0
2016-Dec-09 04:31N 46°04' W 001°15'0 0.0
2016-Dec-09 03:31N 46°04' W 001°15'0 0.0
2016-Dec-09 02:31N 46°04' W 001°15'0 0.0
2016-Dec-09 01:31N 46°04' W 001°15'0 0.0
2016-Dec-09 00:31N 46°04' W 001°15'0 0.0
2016-Dec-08 23:31N 46°04' W 001°14'0 0.1
2016-Dec-08 22:31N 46°04' W 001°14'0 0.0
2016-Dec-08 21:31N 46°04' W 001°14'0 0.0
2016-Dec-08 20:31N 46°04' W 001°14'0 0.0
2016-Dec-08 19:31N 46°04' W 001°14'0 0.0
2016-Dec-08 18:31N 46°04' W 001°14'0 0.0
2016-Dec-08 17:31N 46°04' W 001°14'0 0.0
2016-Dec-08 16:28N 46°04' W 001°14'0 0.0
2016-Dec-08 15:31N 46°04' W 001°15'0 0.0
2016-Dec-08 14:31N 46°04' W 001°15'0 0.0
2016-Dec-08 13:28N 46°04' W 001°15'0 0.0
2016-Dec-08 12:31N 46°04' W 001°15'0 0.0
2016-Dec-08 11:31N 46°04' W 001°14'0 0.0
2016-Dec-08 10:31N 46°04' W 001°14'0 0.0
2016-Dec-08 09:33N 46°04' W 001°14'0 0.0
2016-Dec-08 08:30N 46°04' W 001°14'0 0.0
2016-Dec-08 07:33N 46°04' W 001°14'0 0.0
2016-Dec-08 06:33N 46°04' W 001°14'0 0.0
2016-Dec-08 05:33N 46°04' W 001°14'0 0.1
2016-Dec-08 04:33N 46°04' W 001°14'0 0.0
2016-Dec-08 03:33N 46°04' W 001°15'0 0.0
2016-Dec-08 02:33N 46°04' W 001°15'0 0.0
2016-Dec-08 01:33N 46°04' W 001°15'0 0.0
2016-Dec-08 00:30N 46°04' W 001°15'0 0.0
2016-Dec-07 23:33N 46°04' W 001°15'0 0.0
2016-Dec-07 22:33N 46°04' W 001°15'0 0.1
2016-Dec-07 21:33N 46°04' W 001°14'0 0.0
2016-Dec-07 20:33N 46°04' W 001°14'0 0.0
2016-Dec-07 19:33N 46°04' W 001°14'0 0.0
2016-Dec-07 18:33N 46°04' W 001°14'0 0.0
2016-Dec-07 17:33N 46°04' W 001°14'0 0.0
2016-Dec-07 16:33N 46°04' W 001°14'0 0.0
2016-Dec-07 15:33N 46°04' W 001°14'0 0.1
2016-Dec-07 14:33N 46°04' W 001°14'0 0.0
2016-Dec-07 13:32N 46°04' W 001°14'0 0.0
2016-Dec-07 12:32N 46°04' W 001°15'0 0.0
2016-Dec-07 11:32N 46°04' W 001°15'0 0.0
2016-Dec-07 10:32N 46°04' W 001°15'0 0.0
2016-Dec-07 09:32N 46°04' W 001°15'0 0.1
2016-Dec-07 08:32N 46°04' W 001°14'0 0.0
2016-Dec-07 07:32N 46°04' W 001°14'0 0.0
2016-Dec-07 06:32N 46°04' W 001°14'0 0.0
2016-Dec-07 05:29N 46°04' W 001°14'2 1.6
2016-Dec-07 04:33N 46°05' W 001°16'7 6.5
2016-Dec-07 03:33N 46°08' W 001°25'7 6.9
2016-Dec-07 02:33N 46°10' W 001°34'7 7.3
2016-Dec-07 01:33N 46°15' W 001°43'7 7.1
2016-Dec-07 00:33N 46°19' W 001°51'7 7.2
2016-Dec-06 23:33N 46°23' W 001°59'8 7.6
2016-Dec-06 22:33N 46°28' W 002°08'8 8.1
2016-Dec-06 21:33N 46°33' W 002°17'8 8.1
2016-Dec-06 20:33N 46°38' W 002°26'15 7.6
2016-Dec-06 18:34N 46°47' W 002°44'8 7.6
2016-Dec-06 17:33N 46°52' W 002°52'9 8.7
2016-Dec-06 16:33N 46°58' W 003°02'10 9.6
2016-Dec-06 15:33N 47°03' W 003°14'9 9.4
2016-Dec-06 14:33N 47°09' W 003°25'10 9.6
2016-Dec-06 13:33N 47°15' W 003°36'10 9.6
2016-Dec-06 12:34N 47°21' W 003°47'10 9.6
2016-Dec-06 11:33N 47°26' W 003°58'10 9.6
2016-Dec-06 10:33N 47°32' W 004°10'10 9.6
2016-Dec-06 09:34N 47°38' W 004°21'10 9.9
2016-Dec-06 08:33N 47°44' W 004°32'10 9.9
2016-Dec-06 07:33N 47°50' W 004°44'10 9.7
2016-Dec-06 06:33N 47°56' W 004°56'9 9.2
2016-Dec-06 05:33N 48°02' W 005°06'9 8.7
2016-Dec-06 04:33N 48°09' W 005°13'9 9.2
2016-Dec-06 03:33N 48°18' W 005°18'10 9.8
2016-Dec-06 02:33N 48°27' W 005°24'9 9.1
2016-Dec-06 01:33N 48°35' W 005°19'1110.9
2016-Dec-06 00:33N 48°43' W 005°07'1110.7
2016-Dec-05 23:33N 48°50' W 004°55'1010.3
2016-Dec-05 22:33N 48°57' W 004°43'11 9.5
2016-Dec-05 21:21N 49°04' W 004°29'17 8.8
2016-Dec-05 19:27N 49°15' W 004°10'9 9.1
2016-Dec-05 18:29N 49°21' W 003°60'9 9.7
2016-Dec-05 17:33N 49°27' W 003°50'1210.3
2016-Dec-05 16:26N 49°35' W 003°36'1010.8
2016-Dec-05 15:29N 49°41' W 003°25'1010.8
2016-Dec-05 14:33N 49°48' W 003°13'1010.1
2016-Dec-05 13:33N 49°54' W 003°01'11 8.9
2016-Dec-05 12:20N 49°59' W 002°46'23 7.9
2016-Dec-05 09:23N 50°05' W 002°10'7 8.5
2016-Dec-05 08:33N 50°07' W 001°60'10 9.8
2016-Dec-05 07:33N 50°10' W 001°45'1111.1
2016-Dec-05 06:33N 50°13' W 001°29'1212.1
2016-Dec-05 05:34N 50°16' W 001°10'1412.3
2016-Dec-05 04:25N 50°19' W 000°49'1211.6
2016-Dec-05 03:23N 50°22' W 000°31'910.9
2016-Dec-05 02:33N 50°25' W 000°17'1010.0
2016-Dec-05 01:33N 50°27' W 000°02'9 9.1
2016-Dec-05 00:33N 50°30' E 000°12'41 9.5
2016-Dec-04 20:17N 50°48' E 001°09'811.2
2016-Dec-04 19:33N 50°54' E 001°18'1110.8
2016-Dec-04 18:33N 51°02' E 001°29'9 9.2
2016-Dec-04 17:33N 51°09' E 001°39'8 8.4
2016-Dec-04 16:33N 51°15' E 001°48'8 8.0
2016-Dec-04 15:33N 51°21' E 001°56'7 7.2
2016-Dec-04 14:33N 51°23' E 002°07'9 8.6
2016-Dec-04 13:33N 51°21' E 002°21'10 9.6
2016-Dec-04 12:33N 51°22' E 002°36'1010.4
2016-Dec-04 11:33N 51°22' E 002°52'1111.0
2016-Dec-04 10:33N 51°23' E 003°10'1111.3
2016-Dec-04 09:34N 51°25' E 003°28'1010.1
2016-Dec-04 08:34N 51°23' E 003°43'10 9.5
2016-Dec-04 07:33N 51°26' E 003°58'8 8.4
2016-Dec-04 06:33N 51°24' E 004°11'5 5.0
2016-Dec-04 05:33N 51°21' E 004°17'1 0.9
2016-Dec-04 04:33N 51°22' E 004°17'0 0.0
2016-Dec-04 03:25N 51°22' E 004°17'0 0.0
2016-Dec-04 01:25N 51°22' E 004°17'0 0.0
2016-Dec-04 00:25N 51°22' E 004°17'0 0.0
2016-Dec-03 23:25N 51°22' E 004°17'0 0.0
2016-Dec-03 22:28N 51°22' E 004°17'0 0.0
2016-Dec-03 21:25N 51°22' E 004°17'0 0.0
2016-Dec-03 20:19N 51°22' E 004°17'0 0.0
2016-Dec-03 19:28N 51°22' E 004°17'0 0.0
2016-Dec-03 18:22N 51°22' E 004°17'0 0.0
2016-Dec-03 17:25N 51°22' E 004°17'0 0.0
2016-Dec-03 16:31N 51°22' E 004°17'0 0.0
2016-Dec-03 15:25N 51°22' E 004°17'0 0.0
2016-Dec-03 14:28N 51°22' E 004°17'0 0.0
2016-Dec-03 13:31N 51°22' E 004°17'0 0.0
2016-Dec-03 12:25N 51°22' E 004°17'0 0.0
2016-Dec-03 11:31N 51°22' E 004°17'0 0.0
2016-Dec-03 10:04N 51°22' E 004°17'0 0.0
2016-Dec-03 09:31N 51°22' E 004°17'0 0.0
2016-Dec-03 08:31N 51°22' E 004°17'0 0.0
2016-Dec-03 07:28N 51°22' E 004°17'0 0.0
2016-Dec-03 06:25N 51°22' E 004°17'0 0.0
2016-Dec-03 05:31N 51°22' E 004°17'1 0.7
2016-Dec-03 04:29N 51°21' E 004°17'1 0.7
2016-Dec-03 03:33N 51°21' E 004°16'8 8.2
2016-Dec-03 02:33N 51°22' E 004°03'6 5.9
2016-Dec-03 01:31N 51°28' E 004°00'29 5.9
2016-Dec-02 20:33N 51°46' E 004°38'8 8.0
2016-Dec-02 19:33N 51°54' E 004°36'5 4.9
2016-Dec-02 18:31N 51°54' E 004°28'0 0.0
2016-Dec-02 17:28N 51°54' E 004°28'0 0.0
2016-Dec-02 16:31N 51°54' E 004°28'1 1.2
2016-Dec-02 15:31N 51°53' E 004°26'0 0.0
2016-Dec-02 14:31N 51°53' E 004°26'0 0.0
2016-Dec-02 13:31N 51°53' E 004°26'0 0.0
2016-Dec-02 12:31N 51°53' E 004°26'0 0.0
2016-Dec-02 11:31N 51°53' E 004°26'0 0.0
2016-Dec-02 10:31N 51°53' E 004°26'0 0.4
2016-Dec-02 09:33N 51°53' E 004°26'1 1.4
2016-Dec-02 08:31N 51°54' E 004°28'0 0.0
2016-Dec-02 07:31N 51°54' E 004°28'0 0.0
2016-Dec-02 06:32N 51°54' E 004°28'0 0.0
2016-Dec-02 05:30N 51°54' E 004°28'0 0.0
2016-Dec-02 04:33N 51°54' E 004°28'0 0.0
2016-Dec-02 03:33N 51°54' E 004°28'0 0.0
2016-Dec-02 02:33N 51°54' E 004°28'0 0.0
2016-Dec-02 01:33N 51°54' E 004°28'0 0.0
2016-Dec-02 00:33N 51°54' E 004°28'0 0.0
2016-Dec-01 23:33N 51°54' E 004°28'0 0.0
2016-Dec-01 22:33N 51°54' E 004°28'6 6.5
2016-Dec-01 21:34N 51°54' E 004°18'9 8.5
2016-Dec-01 20:34N 51°59' E 004°07'9 9.3
2016-Dec-01 19:34N 52°00' E 003°52'8410.3
2016-Dec-01 11:22N 52°46' E 001°56'1011.8
2016-Dec-01 10:33N 52°51' E 001°43'1212.4
2016-Dec-01 09:34N 53°00' E 001°29'1212.4
2016-Dec-01 08:33N 53°10' E 001°15'6911.4
2016-Dec-01 02:33N 54°04' E 000°04'1010.4
2016-Dec-01 01:34N 54°12' W 000°06'10 9.8
2016-Dec-01 00:34N 54°20' W 000°17'9 9.1
2016-Nov-30 23:34N 54°27' W 000°26'37 9.0
2016-Nov-30 19:27N 54°54' W 001°10'910.1
2016-Nov-30 18:34N 55°00' W 001°22'4 1.7
2016-Nov-30 16:24N 54°59' W 001°28'0 0.0
2016-Nov-30 15:30N 54°59' W 001°28'0 0.0
2016-Nov-30 14:30N 54°59' W 001°28'0 0.0
2016-Nov-30 13:30N 54°59' W 001°28'2 0.4
2016-Nov-30 08:32N 55°01' W 001°26'7 7.1
2016-Nov-30 07:33N 54°57' W 001°15'  

Dump ship's entire track history